^^
Datos históricos de la estación: Murcia-Puente Tocinos
Diario Informe para Abril 6, 2019 Unidades:  Ambas    Ingés   Métrico
Diario Semanal Mensual Anual
  Máxima: Mínima: Promedio:
Temperatura: 75.6 °F /  24.2 °C 56.5 °F /  13.6 °C 64.8 °F /  18.2 °C
Punto de rocio: 59.4 °F /  15.2 °C 52 °F /  11.1 °C 55.8 °F /  13.2 °C
Humedad: 86% 55% 74%
Velocidad viento: 11.2mph /  18km/h - 4.5mph /  7.3km/h
Racha viento: 21mph /  33.8km/h - -
Viento- - Este
Presión: 30.1 in /  1017.7 hPa 30 in /  1015.0 hPa -
Precipitación: 0 in /  0.0 mm    
 
 
Tabla de datos para Abril 6, 2019
Hora Temperatura Punto de rocio Presión Viento Velocidad viento Racha viento Humedad Intensidad lluvia(por hora) Nubes
00:04 60.1 °F /  15.6 °C 52.3 °F /  11.3 °C 30in /  1015.2hPa NE 4.3mph /  6.9km/h 8.1mph /  13km/h 75.4% 0in /  0.0mm
00:09 60.1 °F /  15.6 °C 52.5 °F /  11.4 °C 30in /  1015.1hPa NE 4.4mph /  7.1km/h 8.5mph /  13.7km/h 76% 0in /  0.0mm
00:14 59.9 °F /  15.5 °C 52.3 °F /  11.3 °C 30in /  1015.1hPa NNE 4.7mph /  7.6km/h 9mph /  14.5km/h 76% 0in /  0.0mm
00:19 59.7 °F /  15.4 °C 52.2 °F /  11.2 °C 30in /  1015.3hPa NNE 4.6mph /  7.4km/h 7mph /  11.3km/h 76.3% 0in /  0.0mm
00:24 59.5 °F /  15.3 °C 52.3 °F /  11.3 °C 30in /  1015.3hPa NNE 4.3mph /  6.9km/h 7mph /  11.3km/h 77% 0in /  0.0mm
00:29 59.5 °F /  15.3 °C 52.3 °F /  11.3 °C 30in /  1015.3hPa NNE 4.1mph /  6.6km/h 6.2mph /  10km/h 77% 0in /  0.0mm
00:34 59.5 °F /  15.3 °C 52.3 °F /  11.3 °C 30in /  1015.3hPa NE 3.6mph /  5.8km/h 6mph /  9.7km/h 77% 0in /  0.0mm
00:39 59.5 °F /  15.3 °C 52.3 °F /  11.3 °C 30in /  1015.3hPa NE 3.4mph /  5.4km/h 5.4mph /  8.7km/h 77% 0in /  0.0mm
00:44 59.5 °F /  15.3 °C 52.2 °F /  11.2 °C 30in /  1015.3hPa NNE 2.9mph /  4.6km/h 6mph /  9.7km/h 77% 0in /  0.0mm
00:49 59.4 °F /  15.2 °C 52.2 °F /  11.2 °C 30in /  1015.3hPa NNE 2.9mph /  4.7km/h 6mph /  9.7km/h 77% 0in /  0.0mm
00:54 59.4 °F /  15.2 °C 52.2 °F /  11.2 °C 30in /  1015.3hPa NNE 3.1mph /  5km/h 5.2mph /  8.4km/h 77% 0in /  0.0mm
00:59 59.4 °F /  15.2 °C 52.2 °F /  11.2 °C 30in /  1015.3hPa NNE 3mph /  4.9km/h 5.8mph /  9.3km/h 77.3% 0in /  0.0mm
01:04 59.4 °F /  15.2 °C 52.3 °F /  11.3 °C 30in /  1015.4hPa NNE 2.9mph /  4.6km/h 6mph /  9.7km/h 77.8% 0in /  0.0mm
01:09 59.2 °F /  15.1 °C 52.3 °F /  11.3 °C 30in /  1015.4hPa NNE 3.2mph /  5.1km/h 6mph /  9.7km/h 78% 0in /  0.0mm
01:14 59.2 °F /  15.1 °C 52.3 °F /  11.3 °C 30in /  1015.4hPa NNE 3.6mph /  5.8km/h 5.2mph /  8.4km/h 78% 0in /  0.0mm
01:19 59 °F /  15 °C 52.2 °F /  11.2 °C 30in /  1015.5hPa NNE 3.6mph /  5.8km/h 5.2mph /  8.4km/h 78% 0in /  0.0mm
01:24 58.8 °F /  14.9 °C 52 °F /  11.1 °C 30in /  1015.5hPa NNE 3.6mph /  5.8km/h 6.9mph /  11.1km/h 78.1% 0in /  0.0mm
01:29 58.8 °F /  14.9 °C 52.3 °F /  11.3 °C 30in /  1015.5hPa NNE 3.6mph /  5.8km/h 7mph /  11.3km/h 79% 0in /  0.0mm
01:34 58.6 °F /  14.8 °C 52.2 °F /  11.2 °C 30in /  1015.5hPa NNE 3.6mph /  5.8km/h 7mph /  11.3km/h 79% 0in /  0.0mm
01:39 58.6 °F /  14.8 °C 52.2 °F /  11.2 °C 30in /  1015.4hPa NNE 3.9mph /  6.2km/h 7mph /  11.3km/h 79% 0in /  0.0mm
01:44 58.6 °F /  14.8 °C 52.2 °F /  11.2 °C 30in /  1015.4hPa NNE 4.3mph /  6.9km/h 6mph /  9.7km/h 79.3% 0in /  0.0mm
01:49 58.6 °F /  14.8 °C 52.3 °F /  11.3 °C 30in /  1015.4hPa NO 3.4mph /  5.5km/h 5.4mph /  8.7km/h 79.8% 0in /  0.0mm
01:54 58.6 °F /  14.8 °C 52.2 °F /  11.2 °C 30in /  1015.4hPa NNO 2mph /  3.2km/h 6mph /  9.7km/h 79% 0in /  0.0mm
01:59 58.6 °F /  14.8 °C 52.2 °F /  11.2 °C 30in /  1015.4hPa NNO 2.2mph /  3.5km/h 6.2mph /  10km/h 79% 0in /  0.0mm
02:04 58.6 °F /  14.8 °C 52.5 °F /  11.4 °C 30in /  1015.4hPa NNE 2.4mph /  3.9km/h 6mph /  9.7km/h 80% 0in /  0.0mm
02:09 58.6 °F /  14.8 °C 52.5 °F /  11.4 °C 30in /  1015.3hPa North 2.4mph /  3.9km/h 6mph /  9.7km/h 80% 0in /  0.0mm
02:14 58.5 °F /  14.7 °C 52.3 °F /  11.3 °C 30in /  1015.3hPa NNE 2.4mph /  3.9km/h 5mph /  8km/h 80% 0in /  0.0mm
02:19 58.5 °F /  14.7 °C 52.3 °F /  11.3 °C 30in /  1015.3hPa NNE 2mph /  3.2km/h 5mph /  8km/h 80% 0in /  0.0mm
02:24 58.5 °F /  14.7 °C 52.3 °F /  11.3 °C 30in /  1015.3hPa NNE 1.4mph /  2.2km/h 5.9mph /  9.5km/h 80% 0in /  0.0mm
02:29 58.5 °F /  14.7 °C 52.3 °F /  11.3 °C 30in /  1015.3hPa NNE 1.8mph /  2.9km/h 6mph /  9.7km/h 80% 0in /  0.0mm
02:34 58.3 °F /  14.6 °C 52.2 °F /  11.2 °C 30in /  1015.3hPa NE 2.4mph /  3.9km/h 5mph /  8km/h 80% 0in /  0.0mm
02:39 58.3 °F /  14.6 °C 52.3 °F /  11.3 °C 30in /  1015.2hPa NE 2.4mph /  3.9km/h 5mph /  8km/h 80.8% 0in /  0.0mm
02:44 58.1 °F /  14.5 °C 52.3 °F /  11.3 °C 30in /  1015.2hPa NNE 2.4mph /  3.9km/h 3.5mph /  5.6km/h 81% 0in /  0.0mm
02:49 58.1 °F /  14.5 °C 52.3 °F /  11.3 °C 30in /  1015.4hPa NNE 2mph /  3.2km/h 3.5mph /  5.6km/h 81% 0in /  0.0mm
02:54 58.1 °F /  14.5 °C 52.3 °F /  11.3 °C 30in /  1015.4hPa NNE 1.4mph /  2.2km/h 3.5mph /  5.6km/h 81% 0in /  0.0mm
02:59 57.9 °F /  14.4 °C 52.2 °F /  11.2 °C 30in /  1015.4hPa ENE 1.6mph /  2.6km/h 3.5mph /  5.6km/h 81% 0in /  0.0mm
03:04 57.9 °F /  14.4 °C 52.2 °F /  11.2 °C 30in /  1015.4hPa ENE 1.8mph /  2.9km/h 4.6mph /  7.4km/h 81% 0in /  0.0mm
03:09 57.9 °F /  14.4 °C 52.2 °F /  11.2 °C 30in /  1015.2hPa NE 1.9mph /  3km/h 5mph /  8km/h 81% 0in /  0.0mm
03:14 57.9 °F /  14.4 °C 52.3 °F /  11.3 °C 30in /  1015.2hPa ENE 2mph /  3.2km/h 5mph /  8km/h 81.7% 0in /  0.0mm
03:19 57.9 °F /  14.4 °C 52.5 °F /  11.4 °C 30in /  1015.2hPa Este 2.2mph /  3.5km/h 5mph /  8km/h 82% 0in /  0.0mm
03:24 57.9 °F /  14.4 °C 52.5 °F /  11.4 °C 30in /  1015.2hPa Este 2.4mph /  3.9km/h 4mph /  6.4km/h 82% 0in /  0.0mm
03:29 57.9 °F /  14.4 °C 52.5 °F /  11.4 °C 30in /  1015.2hPa NE 2mph /  3.2km/h 4mph /  6.4km/h 82% 0in /  0.0mm
03:34 57.9 °F /  14.4 °C 52.5 °F /  11.4 °C 30in /  1015.2hPa NNO 1.4mph /  2.2km/h 5mph /  8km/h 82% 0in /  0.0mm
03:39 57.9 °F /  14.4 °C 52.5 °F /  11.4 °C 30in /  1015.2hPa NO 1.6mph /  2.5km/h 5.4mph /  8.7km/h 82% 0in /  0.0mm
03:44 57.7 °F /  14.3 °C 52.3 °F /  11.3 °C 30in /  1015.2hPa NO 1.8mph /  2.9km/h 6mph /  9.7km/h 82% 0in /  0.0mm
03:49 57.7 °F /  14.3 °C 52.3 °F /  11.3 °C 30in /  1015.3hPa NNO 1.9mph /  3km/h 5mph /  8km/h 82% 0in /  0.0mm
03:54 57.7 °F /  14.3 °C 52.3 °F /  11.3 °C 30in /  1015.3hPa NNO 2mph /  3.2km/h 3mph /  4.8km/h 82% 0in /  0.0mm
03:59 57.7 °F /  14.3 °C 52.3 °F /  11.3 °C 30in /  1015.3hPa North 1.1mph /  1.7km/h 4.6mph /  7.4km/h 82% 0in /  0.0mm
04:04 57.7 °F /  14.3 °C 52.3 °F /  11.3 °C 30in /  1015.3hPa Calm   5mph /  8km/h 82.3% 0in /  0.0mm
04:09 57.6 °F /  14.2 °C 52.5 °F /  11.4 °C 30in /  1015.3hPa NNE 0.7mph /  1.2km/h 5mph /  8km/h 83% 0in /  0.0mm
04:14 57.7 °F /  14.3 °C 52.5 °F /  11.4 °C 30in /  1015.3hPa NNE 1.8mph /  2.9km/h   83% 0in /  0.0mm
04:19 57.7 °F /  14.3 °C 52.5 °F /  11.4 °C 30in /  1015.3hPa NNE 1.1mph /  1.7km/h 3.6mph /  5.8km/h 83% 0in /  0.0mm
04:24 57.6 °F /  14.2 °C 52.3 °F /  11.3 °C 30in /  1015.3hPa Calm   4mph /  6.4km/h 82.5% 0in /  0.0mm
04:29 57.6 °F /  14.2 °C 52.3 °F /  11.3 °C 30in /  1015.3hPa NNE 0.8mph /  1.3km/h 5.2mph /  8.4km/h 83% 0in /  0.0mm
04:34 57.4 °F /  14.1 °C 52.3 °F /  11.3 °C 30in /  1015.3hPa NE 2mph /  3.2km/h 5mph /  8km/h 83% 0in /  0.0mm
04:39 57.4 °F /  14.1 °C 52.3 °F /  11.3 °C 30in /  1015.3hPa NE 2.2mph /  3.5km/h 5mph /  8km/h 83% 0in /  0.0mm
04:44 57.2 °F /  14 °C 52.2 °F /  11.2 °C 30in /  1015.3hPa NE 2.4mph /  3.9km/h 5mph /  8km/h 83% 0in /  0.0mm
04:49 57.2 °F /  14 °C 52.3 °F /  11.3 °C 30in /  1015.5hPa NE 2.2mph /  3.6km/h 5mph /  8km/h 83.8% 0in /  0.0mm
04:54 57 °F /  13.9 °C 52.2 °F /  11.2 °C 30in /  1015.5hPa NE 2mph /  3.2km/h 4mph /  6.4km/h 84% 0in /  0.0mm
04:59 57 °F /  13.9 °C 52.2 °F /  11.2 °C 30in /  1015.5hPa NE 1mph /  1.6km/h 3mph /  4.8km/h 84% 0in /  0.0mm
05:04 57 °F /  13.9 °C 52.2 °F /  11.2 °C 30in /  1015.6hPa Calm     84% 0in /  0.0mm
05:09 57 °F /  13.9 °C 52.2 °F /  11.2 °C 30in /  1015.6hPa Calm   2.3mph /  3.7km/h 84% 0in /  0.0mm
05:14 57 °F /  13.9 °C 52.2 °F /  11.2 °C 30in /  1015.6hPa Calm   2mph /  3.2km/h 84% 0in /  0.0mm
05:19 57 °F /  13.9 °C 52.2 °F /  11.2 °C 30in /  1015.6hPa NE 0.6mph /  0.9km/h 4.6mph /  7.4km/h 84% 0in /  0.0mm
05:24 57 °F /  13.9 °C 52.2 °F /  11.2 °C 30in /  1015.6hPa ENE 1.4mph /  2.2km/h 5mph /  8km/h 84% 0in /  0.0mm
05:29 57 °F /  13.9 °C 52.2 °F /  11.2 °C 30in /  1015.6hPa Este 1.4mph /  2.2km/h 3mph /  4.8km/h 84% 0in /  0.0mm
05:34 56.8 °F /  13.8 °C 52.2 °F /  11.2 °C 30in /  1015.7hPa Este 1.4mph /  2.2km/h 2.4mph /  3.9km/h 84% 0in /  0.0mm
05:39 56.8 °F /  13.8 °C 52.3 °F /  11.3 °C 30in /  1015.7hPa Este 0.8mph /  1.3km/h 2mph /  3.2km/h 84.7% 0in /  0.0mm
05:44 56.8 °F /  13.8 °C 52.5 °F /  11.4 °C 30in /  1015.7hPa Calm     85% 0in /  0.0mm
05:49 56.8 °F /  13.8 °C 52.3 °F /  11.3 °C 30in /  1015.8hPa Calm   2.3mph /  3.7km/h 84.7% 0in /  0.0mm
05:54 56.8 °F /  13.8 °C 52.5 °F /  11.4 °C 30in /  1015.8hPa Calm   2.9mph /  4.7km/h 85% 0in /  0.0mm
05:59 56.8 °F /  13.8 °C 52.3 °F /  11.3 °C 30in /  1015.8hPa Calm   4mph /  6.4km/h 84.5% 0in /  0.0mm
06:04 56.8 °F /  13.8 °C 52.2 °F /  11.2 °C 30in /  1015.8hPa Calm   5mph /  8km/h 84% 0in /  0.0mm
06:09 56.7 °F /  13.7 °C 52 °F /  11.1 °C 30in /  1015.8hPa Este 0.7mph /  1.2km/h 5mph /  8km/h 84% 0in /  0.0mm
06:14 56.7 °F /  13.7 °C 52.2 °F /  11.2 °C 30in /  1015.8hPa Este 1.8mph /  2.9km/h 4.6mph /  7.4km/h 84.8% 0in /  0.0mm
06:19 56.5 °F /  13.6 °C 52 °F /  11.1 °C 30in /  1015.9hPa Este 1.8mph /  2.9km/h 5mph /  8km/h 85% 0in /  0.0mm
06:24 56.5 °F /  13.6 °C 52 °F /  11.1 °C 30in /  1015.9hPa Este 1.8mph /  2.9km/h 4mph /  6.4km/h 85.1% 0in /  0.0mm
06:29 56.5 °F /  13.6 °C 52.3 °F /  11.3 °C 30in /  1015.9hPa Este 1.8mph /  2.9km/h 4mph /  6.4km/h 86% 0in /  0.0mm
06:34 56.5 °F /  13.6 °C 52 °F /  11.1 °C 30in /  1016.0hPa ESE 1.8mph /  2.9km/h 4.6mph /  7.4km/h 85.2% 0in /  0.0mm
06:39 56.5 °F /  13.6 °C 52.2 °F /  11.2 °C 30in /  1016.0hPa ESE 1.8mph /  2.9km/h 5mph /  8km/h 85.5% 0in /  0.0mm
06:44 56.5 °F /  13.6 °C 52.2 °F /  11.2 °C 30in /  1016.0hPa ESE 1.8mph /  2.9km/h 3.6mph /  5.8km/h 85.3% 0in /  0.0mm
06:49 56.5 °F /  13.6 °C 52 °F /  11.1 °C 30in /  1016.1hPa ESE 1.8mph /  2.9km/h 4mph /  6.4km/h 85.1% 0in /  0.0mm
06:54 56.5 °F /  13.6 °C 52 °F /  11.1 °C 30in /  1016.1hPa ESE 1.8mph /  2.9km/h 3.6mph /  5.8km/h 85% 0in /  0.0mm
06:59 56.7 °F /  13.7 °C 52.2 °F /  11.2 °C 30in /  1016.1hPa ESE 1.8mph /  2.9km/h 4mph /  6.4km/h 85% 0in /  0.0mm
07:04 56.7 °F /  13.7 °C 52.5 °F /  11.4 °C 30in /  1016.4hPa ESE 1.8mph /  2.9km/h 2.4mph /  3.9km/h 85.8% 0in /  0.0mm
07:09 56.8 °F /  13.8 °C 52.3 °F /  11.3 °C 30in /  1016.4hPa ESE 1.6mph /  2.6km/h 4.7mph /  7.6km/h 85.2% 0in /  0.0mm
07:14 56.8 °F /  13.8 °C 52.3 °F /  11.3 °C 30in /  1016.4hPa SE 1.4mph /  2.2km/h 5mph /  8km/h 85% 0in /  0.0mm
07:19 56.8 °F /  13.8 °C 52.3 °F /  11.3 °C 30in /  1016.5hPa SE 1.6mph /  2.5km/h 5mph /  8km/h 85% 0in /  0.0mm
07:24 56.8 °F /  13.8 °C 52.5 °F /  11.4 °C 30in /  1016.5hPa SE 1.8mph /  2.9km/h   85% 0in /  0.0mm
07:29 57 °F /  13.9 °C 52.5 °F /  11.4 °C 30in /  1016.5hPa SE 1.1mph /  1.8km/h   85% 0in /  0.0mm
07:34 57.2 °F /  14 °C 52.7 °F /  11.5 °C 30in /  1016.6hPa Calm     85% 0in /  0.0mm
07:39 57.4 °F /  14.1 °C 52.7 °F /  11.5 °C 30in /  1016.6hPa Calm     84.1% 0in /  0.0mm
07:44 57.4 °F /  14.1 °C 52.5 °F /  11.4 °C 30in /  1016.6hPa Calm     84% 0in /  0.0mm
07:49 57.6 °F /  14.2 °C 52.7 °F /  11.5 °C 30in /  1016.9hPa Calm     84% 0in /  0.0mm
07:54 57.6 °F /  14.2 °C 52.7 °F /  11.5 °C 30in /  1016.9hPa Calm     83.6% 0in /  0.0mm
07:59 57.6 °F /  14.2 °C 52.9 °F /  11.6 °C 30in /  1016.9hPa Calm     84% 0in /  0.0mm
08:04 57.7 °F /  14.3 °C 52.9 °F /  11.6 °C 30in /  1017.0hPa Calm     83.5% 0in /  0.0mm
08:09 57.9 °F /  14.4 °C 53.1 °F /  11.7 °C 30in /  1017.0hPa Calm     83.7% 0in /  0.0mm
08:14 57.9 °F /  14.4 °C 53.1 °F /  11.7 °C 30in /  1017.0hPa Calm     84% 0in /  0.0mm
08:19 58.1 °F /  14.5 °C 53.4 °F /  11.9 °C 30in /  1017.1hPa Calm   2.3mph /  3.7km/h 83.9% 0in /  0.0mm
08:24 58.3 °F /  14.6 °C 53.1 °F /  11.7 °C 30in /  1017.1hPa Calm   3.6mph /  5.8km/h 83% 0in /  0.0mm
08:29 58.3 °F /  14.6 °C 53.2 °F /  11.8 °C 30in /  1017.1hPa NNE 0.6mph /  0.9km/h 4mph /  6.4km/h 83% 0in /  0.0mm
08:34 58.5 °F /  14.7 °C 53.2 °F /  11.8 °C 30in /  1017.2hPa NNE 1.4mph /  2.2km/h 2.4mph /  3.9km/h 83% 0in /  0.0mm
08:39 58.6 °F /  14.8 °C 53.4 °F /  11.9 °C 30in /  1017.2hPa NNE 0.9mph /  1.4km/h 2.9mph /  4.7km/h 83% 0in /  0.0mm
08:44 58.8 °F /  14.9 °C 53.6 °F /  12 °C 30in /  1017.2hPa Calm   3.1mph /  5km/h 83% 0in /  0.0mm
08:49 59 °F /  15 °C 53.4 °F /  11.9 °C 30in /  1017.4hPa Calm   4.6mph /  7.4km/h 82% 0in /  0.0mm
08:54 59.2 °F /  15.1 °C 53.6 °F /  12 °C 30in /  1017.4hPa Calm   5mph /  8km/h 82% 0in /  0.0mm
08:59 59.4 °F /  15.2 °C 53.8 °F /  12.1 °C 30in /  1017.4hPa NO 0.9mph /  1.5km/h 5mph /  8km/h 82% 0in /  0.0mm
09:04 59.5 °F /  15.3 °C 54 °F /  12.2 °C 30in /  1017.4hPa NO 1.8mph /  2.9km/h 5mph /  8km/h 81.8% 0in /  0.0mm
09:09 59.5 °F /  15.3 °C 53.8 °F /  12.1 °C 30in /  1017.3hPa NO 1.1mph /  1.8km/h 2.9mph /  4.7km/h 81% 0in /  0.0mm
09:14 59.7 °F /  15.4 °C 53.8 °F /  12.1 °C 30in /  1017.3hPa Calm   3mph /  4.8km/h 81% 0in /  0.0mm
09:19 59.9 °F /  15.5 °C 54.1 °F /  12.3 °C 30.1in /  1017.6hPa Calm   2.9mph /  4.7km/h 81% 0in /  0.0mm
09:24 60.1 °F /  15.6 °C 54.1 °F /  12.3 °C 30.1in /  1017.6hPa Calm   3.6mph /  5.8km/h 80.9% 0in /  0.0mm
09:29 60.3 °F /  15.7 °C 54 °F /  12.2 °C 30.1in /  1017.6hPa Calm   4mph /  6.4km/h 80% 0in /  0.0mm
09:34 60.3 °F /  15.7 °C 54.1 °F /  12.3 °C 30.1in /  1017.6hPa Calm   5mph /  8km/h 80% 0in /  0.0mm
09:39 60.4 °F /  15.8 °C 54.3 °F /  12.4 °C 30.1in /  1017.5hPa Calm   3mph /  4.8km/h 80% 0in /  0.0mm
09:44 61 °F /  16.1 °C 54.7 °F /  12.6 °C 30.1in /  1017.5hPa Calm     80% 0in /  0.0mm
09:49 61.2 °F /  16.2 °C 54.7 °F /  12.6 °C 30.1in /  1017.5hPa Calm     79.1% 0in /  0.0mm
09:54 61.3 °F /  16.3 °C 54.7 °F /  12.6 °C 30.1in /  1017.5hPa Calm   4.6mph /  7.4km/h 79% 0in /  0.0mm
09:59 61.5 °F /  16.4 °C 54.9 °F /  12.7 °C 30.1in /  1017.5hPa NO 0.9mph /  1.4km/h 5.8mph /  9.3km/h 79% 0in /  0.0mm
10:04 61.5 °F /  16.4 °C 54.9 °F /  12.7 °C 30.1in /  1017.5hPa ONO 1.8mph /  2.9km/h 6mph /  9.7km/h 79% 0in /  0.0mm
10:09 61.5 °F /  16.4 °C 54.9 °F /  12.7 °C 30.1in /  1017.5hPa NNO 2.1mph /  3.3km/h 6mph /  9.7km/h 79% 0in /  0.0mm
10:14 61.3 °F /  16.3 °C 54.9 °F /  12.7 °C 30.1in /  1017.5hPa NNE 2.4mph /  3.9km/h 5mph /  8km/h 79% 0in /  0.0mm
10:19 61.5 °F /  16.4 °C 54.9 °F /  12.7 °C 30.1in /  1017.5hPa Este 2.2mph /  3.5km/h 4.6mph /  7.4km/h 79% 0in /  0.0mm
10:24 61.7 °F /  16.5 °C 55.2 °F /  12.9 °C 30.1in /  1017.5hPa North 1.8mph /  2.9km/h 5.2mph /  8.4km/h 79% 0in /  0.0mm
10:29 61.9 °F /  16.6 °C 55.4 °F /  13 °C 30.1in /  1017.5hPa NNE 2.1mph /  3.3km/h 5mph /  8km/h 79% 0in /  0.0mm
10:34 62.1 °F /  16.7 °C 55.4 °F /  13 °C 30.1in /  1017.5hPa NE 2.4mph /  3.9km/h 6.2mph /  10km/h 78.4% 0in /  0.0mm
10:39 62.4 °F /  16.9 °C 55.4 °F /  13 °C 30.1in /  1017.5hPa NE 2.6mph /  4.2km/h 8.1mph /  13km/h 78% 0in /  0.0mm
10:44 62.8 °F /  17.1 °C 55.6 °F /  13.1 °C 30.1in /  1017.5hPa ENE 2.9mph /  4.7km/h 8.1mph /  13km/h 77.6% 0in /  0.0mm
10:49 63.1 °F /  17.3 °C 55.4 °F /  13 °C 30.1in /  1017.5hPa Este 3.2mph /  5.1km/h 8mph /  12.9km/h 76% 0in /  0.0mm
10:54 63.3 °F /  17.4 °C 55.6 °F /  13.1 °C 30.1in /  1017.5hPa ESE 3.6mph /  5.8km/h 6mph /  9.7km/h 75.9% 0in /  0.0mm
10:59 63.9 °F /  17.7 °C 55.8 °F /  13.2 °C 30.1in /  1017.5hPa Este 3.4mph /  5.4km/h 6.2mph /  10km/h 75% 0in /  0.0mm
11:04 64 °F /  17.8 °C 55.8 °F /  13.2 °C 30.1in /  1017.7hPa NE 3.1mph /  5km/h 6.4mph /  10.3km/h 74.4% 0in /  0.0mm
11:09 64.2 °F /  17.9 °C 55.8 °F /  13.2 °C 30.1in /  1017.7hPa NNO 3.3mph /  5.3km/h 6mph /  9.7km/h 74% 0in /  0.0mm
11:14 64.2 °F /  17.9 °C 55.8 °F /  13.2 °C 30.1in /  1017.7hPa NNE 3.6mph /  5.8km/h 5.9mph /  9.5km/h 73.8% 0in /  0.0mm
11:19 64.8 °F /  18.2 °C 55.9 °F /  13.3 °C 30.1in /  1017.7hPa North 3.3mph /  5.3km/h 6mph /  9.7km/h 73.3% 0in /  0.0mm
11:24 64.9 °F /  18.3 °C 56.1 °F /  13.4 °C 30.1in /  1017.5hPa Este 2.9mph /  4.7km/h 6.9mph /  11.1km/h 72.7% 0in /  0.0mm
11:29 65.3 °F /  18.5 °C 55.9 °F /  13.3 °C 30.1in /  1017.5hPa Este 3.2mph /  5.1km/h 7mph /  11.3km/h 72.1% 0in /  0.0mm
11:34 65.5 °F /  18.6 °C 56.1 °F /  13.4 °C 30.1in /  1017.6hPa Este 3.6mph /  5.8km/h 5.2mph /  8.4km/h 72% 0in /  0.0mm
11:39 65.8 °F /  18.8 °C 56.3 °F /  13.5 °C 30.1in /  1017.6hPa NE 2.9mph /  4.7km/h 6.9mph /  11.1km/h 71.2% 0in /  0.0mm
11:44 66 °F /  18.9 °C 56.1 °F /  13.4 °C 30.1in /  1017.6hPa ENE 2mph /  3.2km/h 7mph /  11.3km/h 70.5% 0in /  0.0mm
11:49 66.4 °F /  19.1 °C 56.5 °F /  13.6 °C 30.1in /  1017.6hPa ESE 2mph /  3.2km/h 5.8mph /  9.3km/h 70.2% 0in /  0.0mm
11:54 66.7 °F /  19.3 °C 56.3 °F /  13.5 °C 30.1in /  1017.5hPa NNO 2mph /  3.2km/h 6.9mph /  11.1km/h 69.2% 0in /  0.0mm
11:59 67.1 °F /  19.5 °C 56.5 °F /  13.6 °C 30.1in /  1017.5hPa NE 2.4mph /  3.9km/h 7mph /  11.3km/h 69% 0in /  0.0mm
12:04 67.6 °F /  19.8 °C 56.8 °F /  13.8 °C 30.1in /  1017.5hPa ESE 2.9mph /  4.6km/h 6.2mph /  10km/h 68.5% 0in /  0.0mm
12:09 68.4 °F /  20.2 °C 57 °F /  13.9 °C 30in /  1017.4hPa North 2.7mph /  4.3km/h 6mph /  9.7km/h 67% 0in /  0.0mm
12:14 68.7 °F /  20.4 °C 57 °F /  13.9 °C 30in /  1017.4hPa ENE 2.4mph /  3.9km/h 8.1mph /  13km/h 66.3% 0in /  0.0mm
12:19 68.4 °F /  20.2 °C 56.8 °F /  13.8 °C 30in /  1017.4hPa NE 2.9mph /  4.6km/h 8mph /  12.9km/h 66.6% 0in /  0.0mm
12:24 68.5 °F /  20.3 °C 57 °F /  13.9 °C 30in /  1017.4hPa NE 3.6mph /  5.8km/h 8.1mph /  13km/h 67% 0in /  0.0mm
12:29 68.5 °F /  20.3 °C 57 °F /  13.9 °C 30in /  1017.4hPa NNE 3.7mph /  6km/h 8.5mph /  13.7km/h 67% 0in /  0.0mm
12:34 68.7 °F /  20.4 °C 57.4 °F /  14.1 °C 30in /  1017.4hPa North 4mph /  6.5km/h 9mph /  14.5km/h 67% 0in /  0.0mm
12:39 69.3 °F /  20.7 °C 57.4 °F /  14.1 °C 30in /  1017.1hPa NNE 4mph /  6.5km/h 11.5mph /  18.5km/h 66.1% 0in /  0.0mm
12:44 69.3 °F /  20.7 °C 57.4 °F /  14.1 °C 30in /  1017.1hPa NNE 4mph /  6.5km/h 12mph /  19.3km/h 66% 0in /  0.0mm
12:49 69.6 °F /  20.9 °C 57.6 °F /  14.2 °C 30in /  1017.1hPa NNE 4.5mph /  7.2km/h 11mph /  17.7km/h 65.8% 0in /  0.0mm
12:54 69.6 °F /  20.9 °C 57.4 °F /  14.1 °C 30in /  1017.0hPa NE 5.2mph /  8.4km/h 13mph /  20.9km/h 65.1% 0in /  0.0mm
12:59 69.8 °F /  21 °C 57.7 °F /  14.3 °C 30in /  1017.0hPa NE 5.8mph /  9.3km/h 13mph /  20.9km/h 65.3% 0in /  0.0mm
13:04 70 °F /  21.1 °C 57.7 °F /  14.3 °C 30in /  1017.0hPa NE 6.4mph /  10.3km/h 11.4mph /  18.3km/h 65% 0in /  0.0mm
13:09 70.3 °F /  21.3 °C 57.9 °F /  14.4 °C 30in /  1016.8hPa NE 6.2mph /  10km/h 12mph /  19.3km/h 64.5% 0in /  0.0mm
13:14 70.9 °F /  21.6 °C 57.9 °F /  14.4 °C 30in /  1016.8hPa NE 5.9mph /  9.5km/h 12mph /  19.3km/h 63.6% 0in /  0.0mm
13:19 71.1 °F /  21.7 °C 58.1 °F /  14.5 °C 30in /  1016.8hPa NNE 5.4mph /  8.7km/h 15mph /  24.1km/h 63.4% 0in /  0.0mm
13:24 71.4 °F /  21.9 °C 57.9 °F /  14.4 °C 30in /  1016.7hPa NE 4.7mph /  7.6km/h 15mph /  24.1km/h 62.5% 0in /  0.0mm
13:29 71.8 °F /  22.1 °C 57.9 °F /  14.4 °C 30in /  1016.7hPa NNE 5.7mph /  9.2km/h 13mph /  20.9km/h 61.7% 0in /  0.0mm
13:34 72.1 °F /  22.3 °C 58.1 °F /  14.5 °C 30in /  1016.7hPa NE 7.4mph /  11.9km/h 12mph /  19.3km/h 61.2% 0in /  0.0mm
13:39 72.5 °F /  22.5 °C 58.1 °F /  14.5 °C 30in /  1016.4hPa NE 6.5mph /  10.5km/h 11.8mph /  19km/h 60.3% 0in /  0.0mm
13:44 73 °F /  22.8 °C 58.3 °F /  14.6 °C 30in /  1016.4hPa NE 5.2mph /  8.4km/h 12mph /  19.3km/h 59.7% 0in /  0.0mm
13:49 73.6 °F /  23.1 °C 58.3 °F /  14.6 °C 30in /  1016.4hPa NE 5.5mph /  8.8km/h 13.8mph /  22.2km/h 58.6% 0in /  0.0mm
13:54 73.8 °F /  23.2 °C 58.1 °F /  14.5 °C 30in /  1016.2hPa NE 5.9mph /  9.5km/h 14mph /  22.5km/h 58% 0in /  0.0mm
13:59 73.9 °F /  23.3 °C 58.3 °F /  14.6 °C 30in /  1016.2hPa NE 6.4mph /  10.3km/h 12.7mph /  20.4km/h 58.5% 0in /  0.0mm
14:04 73.9 °F /  23.3 °C 58.5 °F /  14.7 °C 30in /  1016.2hPa NE 6.9mph /  11.1km/h 13.8mph /  22.2km/h 58.2% 0in /  0.0mm
14:09 73.9 °F /  23.3 °C 58.6 °F /  14.8 °C 30in /  1016.0hPa NE 7.4mph /  11.9km/h 14mph /  22.5km/h 59.1% 0in /  0.0mm
14:14 73.9 °F /  23.3 °C 58.6 °F /  14.8 °C 30in /  1016.0hPa ENE 8.1mph /  13km/h 18.4mph /  29.6km/h 58.6% 0in /  0.0mm
14:19 73.9 °F /  23.3 °C 58.6 °F /  14.8 °C 30in /  1016.0hPa NE 8.3mph /  13.3km/h 18mph /  29km/h 59.1% 0in /  0.0mm
14:24 74.1 °F /  23.4 °C 58.8 °F /  14.9 °C 30in /  1016.0hPa NE 8.5mph /  13.7km/h 14mph /  22.5km/h 59.1% 0in /  0.0mm
14:29 74.5 °F /  23.6 °C 59.2 °F /  15.1 °C 30in /  1016.0hPa NE 8.1mph /  13.1km/h 19mph /  30.6km/h 59% 0in /  0.0mm
14:34 74.5 °F /  23.6 °C 59.2 °F /  15.1 °C 30in /  1016.0hPa NE 7.6mph /  12.2km/h 19mph /  30.6km/h 59% 0in /  0.0mm
14:39 74.1 °F /  23.4 °C 58.8 °F /  14.9 °C 30in /  1015.7hPa NNE 8.6mph /  13.9km/h 20.7mph /  33.3km/h 58.8% 0in /  0.0mm
14:44 74.3 °F /  23.5 °C 58.6 °F /  14.8 °C 30in /  1015.7hPa ENE 10.2mph /  16.4km/h 21mph /  33.8km/h 58% 0in /  0.0mm
14:49 74.7 °F /  23.7 °C 58.5 °F /  14.7 °C 30in /  1015.7hPa Este 8.6mph /  13.8km/h 13mph /  20.9km/h 57% 0in /  0.0mm
14:54 74.8 °F /  23.8 °C 58.3 °F /  14.6 °C 30in /  1015.7hPa ESE 6.2mph /  10km/h 13mph /  20.9km/h 56.5% 0in /  0.0mm
14:59 74.7 °F /  23.7 °C 58.1 °F /  14.5 °C 30in /  1015.7hPa Este 6.8mph /  10.9km/h 13mph /  20.9km/h 56.3% 0in /  0.0mm
15:04 75 °F /  23.9 °C 58.8 °F /  14.9 °C 30in /  1015.7hPa ESE 7.4mph /  11.9km/h 13mph /  20.9km/h 57% 0in /  0.0mm
15:09 75.6 °F /  24.2 °C 58.5 °F /  14.7 °C 30in /  1015.6hPa ESE 7mph /  11.3km/h 13mph /  20.9km/h 55.5% 0in /  0.0mm
15:14 75.4 °F /  24.1 °C 58.5 °F /  14.7 °C 30in /  1015.6hPa ESE 6.4mph /  10.3km/h 13mph /  20.9km/h 55.6% 0in /  0.0mm
15:19 75.6 °F /  24.2 °C 58.3 °F /  14.6 °C 30in /  1015.6hPa ESE 6.4mph /  10.3km/h 16.1mph /  25.9km/h 55.2% 0in /  0.0mm
15:24 75.2 °F /  24 °C 58.3 °F /  14.6 °C 30in /  1015.6hPa ESE 6.4mph /  10.3km/h 16mph /  25.7km/h 55.6% 0in /  0.0mm
15:29 75.2 °F /  24 °C 58.5 °F /  14.7 °C 30in /  1015.6hPa ESE 6.8mph /  10.9km/h 14mph /  22.5km/h 56.1% 0in /  0.0mm
15:34 75.6 °F /  24.2 °C 58.6 °F /  14.8 °C 30in /  1015.6hPa ENE 7.4mph /  11.9km/h 14mph /  22.5km/h 56% 0in /  0.0mm
15:39 75.6 °F /  24.2 °C 58.3 °F /  14.6 °C 30in /  1015.5hPa ESE 7mph /  11.2km/h 13mph /  20.9km/h 55.1% 0in /  0.0mm
15:44 75.4 °F /  24.1 °C 58.1 °F /  14.5 °C 30in /  1015.5hPa Este 6.4mph /  10.3km/h 13mph /  20.9km/h 55% 0in /  0.0mm
15:49 75.6 °F /  24.2 °C 58.3 °F /  14.6 °C 30in /  1015.5hPa Este 5.9mph /  9.5km/h 13.8mph /  22.2km/h 55% 0in /  0.0mm
15:54 75.6 °F /  24.2 °C 58.3 °F /  14.6 °C 30in /  1015.5hPa ESE 5.2mph /  8.4km/h 14mph /  22.5km/h 55% 0in /  0.0mm
15:59 75.6 °F /  24.2 °C 58.5 °F /  14.7 °C 30in /  1015.5hPa ESE 6.3mph /  10.2km/h 16.1mph /  25.9km/h 55.5% 0in /  0.0mm
16:04 75.2 °F /  24 °C 58.1 °F /  14.5 °C 30in /  1015.5hPa SE 7.4mph /  11.9km/h 16mph /  25.7km/h 55.3% 0in /  0.0mm
16:09 74.8 °F /  23.8 °C 58.3 °F /  14.6 °C 30in /  1015.4hPa ESE 8.3mph /  13.3km/h 17mph /  27.4km/h 56.3% 0in /  0.0mm
16:14 74.7 °F /  23.7 °C 58.3 °F /  14.6 °C 30in /  1015.4hPa Este 9.7mph /  15.6km/h 17.3mph /  27.8km/h 56.7% 0in /  0.0mm
16:19 74.7 °F /  23.7 °C 58.1 °F /  14.5 °C 30in /  1015.4hPa ESE 9.3mph /  14.9km/h 15mph /  24.1km/h 56.5% 0in /  0.0mm
16:24 75 °F /  23.9 °C 58.5 °F /  14.7 °C 30in /  1015.3hPa ESE 8.7mph /  14km/h 14mph /  22.5km/h 56.4% 0in /  0.0mm
16:29 75 °F /  23.9 °C 58.3 °F /  14.6 °C 30in /  1015.3hPa ESE 8.2mph /  13.2km/h 15mph /  24.1km/h 55.8% 0in /  0.0mm
16:34 75 °F /  23.9 °C 58.1 °F /  14.5 °C 30in /  1015.3hPa Este 7.4mph /  11.9km/h 15mph /  24.1km/h 55.7% 0in /  0.0mm
16:39 75 °F /  23.9 °C 58.3 °F /  14.6 °C 30in /  1015.2hPa ESE 7.4mph /  11.9km/h 15.2mph /  24.5km/h 56% 0in /  0.0mm
16:44 75 °F /  23.9 °C 58.5 °F /  14.7 °C 30in /  1015.2hPa ESE 7.4mph /  11.9km/h 15mph /  24.1km/h 56.3% 0in /  0.0mm
16:49 75.2 °F /  24 °C 58.3 °F /  14.6 °C 30in /  1015.2hPa ESE 7.2mph /  11.6km/h 12mph /  19.3km/h 55.9% 0in /  0.0mm
16:54 75.4 °F /  24.1 °C 58.3 °F /  14.6 °C 30in /  1015.1hPa ESE 6.9mph /  11.1km/h 12.3mph /  19.8km/h 55.5% 0in /  0.0mm
16:59 75.2 °F /  24 °C 58.3 °F /  14.6 °C 30in /  1015.1hPa Este 6.9mph /  11.1km/h 16.1mph /  25.9km/h 55.6% 0in /  0.0mm
17:04 75 °F /  23.9 °C 58.5 °F /  14.7 °C 30in /  1015.1hPa ESE 6.9mph /  11.1km/h 17.3mph /  27.8km/h 56.4% 0in /  0.0mm
17:09 74.8 °F /  23.8 °C 58.6 °F /  14.8 °C 30in /  1015.1hPa ESE 7.5mph /  12.1km/h 17mph /  27.4km/h 57% 0in /  0.0mm
17:14 74.8 °F /  23.8 °C 58.6 °F /  14.8 °C 30in /  1015.1hPa ESE 9.2mph /  14.8km/h 17.8mph /  28.6km/h 57% 0in /  0.0mm
17:19 74.5 °F /  23.6 °C 58.6 °F /  14.8 °C 30in /  1015.1hPa ESE 9.2mph /  14.8km/h 18mph /  29km/h 57.7% 0in /  0.0mm
17:24 74.5 °F /  23.6 °C 58.6 °F /  14.8 °C 30in /  1015.1hPa ESE 9.3mph /  15km/h 19.2mph /  30.9km/h 58% 0in /  0.0mm
17:29 74.3 °F /  23.5 °C 58.8 °F /  14.9 °C 30in /  1015.1hPa ESE 9.8mph /  15.8km/h 20mph /  32.2km/h 58.5% 0in /  0.0mm
17:34 74.5 °F /  23.6 °C 59.2 °F /  15.1 °C 30in /  1015.1hPa ESE 10mph /  16.1km/h 20mph /  32.2km/h 58.9% 0in /  0.0mm
17:39 74.3 °F /  23.5 °C 59 °F /  15 °C 30in /  1015.1hPa ESE 10.1mph /  16.2km/h 19mph /  30.6km/h 58.9% 0in /  0.0mm
17:44 74.1 °F /  23.4 °C 59 °F /  15 °C 30in /  1015.0hPa ESE 10.2mph /  16.4km/h 17.5mph /  28.2km/h 59.2% 0in /  0.0mm
17:49 73.9 °F /  23.3 °C 59 °F /  15 °C 30in /  1015.1hPa ESE 9.8mph /  15.7km/h 17.3mph /  27.8km/h 59.4% 0in /  0.0mm
17:54 73.9 °F /  23.3 °C 59.2 °F /  15.1 °C 30in /  1015.1hPa SE 9.2mph /  14.8km/h 17mph /  27.4km/h 60% 0in /  0.0mm
17:59 73.9 °F /  23.3 °C 59.2 °F /  15.1 °C 30in /  1015.1hPa SE 9.6mph /  15.5km/h 16.8mph /  27km/h 60% 0in /  0.0mm
18:04 73.8 °F /  23.2 °C 59.4 °F /  15.2 °C 30in /  1015.1hPa ESE 10mph /  16.1km/h 17.8mph /  28.6km/h 61% 0in /  0.0mm
18:09 73.2 °F /  22.9 °C 59.2 °F /  15.1 °C 30in /  1015.1hPa SE 10.3mph /  16.6km/h 18.4mph /  29.6km/h 61.4% 0in /  0.0mm
18:14 72.9 °F /  22.7 °C 59.2 °F /  15.1 °C 30in /  1015.1hPa ESE 10.7mph /  17.2km/h 18mph /  29km/h 62% 0in /  0.0mm
18:19 72.9 °F /  22.7 °C 59.4 °F /  15.2 °C 30in /  1015.1hPa ESE 10.7mph /  17.2km/h 18.1mph /  29.1km/h 62.7% 0in /  0.0mm
18:24 73 °F /  22.8 °C 59.2 °F /  15.1 °C 30in /  1015.1hPa SE 10.7mph /  17.2km/h 18.4mph /  29.6km/h 62% 0in /  0.0mm
18:29 72.9 °F /  22.7 °C 59.2 °F /  15.1 °C 30in /  1015.1hPa ESE 10mph /  16.1km/h 18mph /  29km/h 62% 0in /  0.0mm
18:34 73 °F /  22.8 °C 59.2 °F /  15.1 °C 30in /  1015.1hPa ESE 9.2mph /  14.8km/h 15mph /  24.1km/h 62% 0in /  0.0mm
18:39 72.9 °F /  22.7 °C 59.2 °F /  15.1 °C 30in /  1015.0hPa ESE 8.9mph /  14.4km/h 16.3mph /  26.2km/h 62.5% 0in /  0.0mm
18:44 72.5 °F /  22.5 °C 59.2 °F /  15.1 °C 30in /  1015.0hPa ESE 8.5mph /  13.7km/h 16mph /  25.7km/h 63% 0in /  0.0mm
18:49 72.5 °F /  22.5 °C 59.2 °F /  15.1 °C 30in /  1015.0hPa ESE 8.6mph /  13.8km/h 15.2mph /  24.5km/h 63% 0in /  0.0mm
18:54 72.3 °F /  22.4 °C 59 °F /  15 °C 30in /  1015.0hPa ESE 8.7mph /  14km/h 15mph /  24.1km/h 63% 0in /  0.0mm
18:59 72.3 °F /  22.4 °C 59 °F /  15 °C 30in /  1015.0hPa SE 8.4mph /  13.5km/h 15mph /  24.1km/h 63% 0in /  0.0mm
19:04 72.3 °F /  22.4 °C 59 °F /  15 °C 30in /  1015.0hPa ESE 8.1mph /  13km/h 15mph /  24.1km/h 63% 0in /  0.0mm
19:09 72 °F /  22.2 °C 59 °F /  15 °C 30in /  1015.2hPa ESE 8.3mph /  13.4km/h 13.8mph /  22.2km/h 63.8% 0in /  0.0mm
19:14 71.6 °F /  22 °C 59 °F /  15 °C 30in /  1015.2hPa ESE 8.7mph /  14km/h 16.3mph /  26.2km/h 64.5% 0in /  0.0mm
19:19 71.1 °F /  21.7 °C 58.8 °F /  14.9 °C 30in /  1015.2hPa ESE 8.9mph /  14.3km/h 16mph /  25.7km/h 65.3% 0in /  0.0mm
19:24 71.1 °F /  21.7 °C 59 °F /  15 °C 30in /  1015.2hPa ESE 9.2mph /  14.8km/h 16.1mph /  25.9km/h 65.5% 0in /  0.0mm
19:29 71.2 °F /  21.8 °C 59 °F /  15 °C 30in /  1015.2hPa Este 8.3mph /  13.4km/h 13mph /  20.9km/h 65.1% 0in /  0.0mm
19:34 71.1 °F /  21.7 °C 59 °F /  15 °C 30in /  1015.2hPa Este 6.9mph /  11.1km/h 13.8mph /  22.2km/h 65.8% 0in /  0.0mm
19:39 70.5 °F /  21.4 °C 58.8 °F /  14.9 °C 30in /  1015.2hPa Este 7.1mph /  11.5km/h 14mph /  22.5km/h 66.5% 0in /  0.0mm
19:44 70.5 °F /  21.4 °C 59 °F /  15 °C 30in /  1015.2hPa ENE 7.6mph /  12.2km/h 13mph /  20.9km/h 67% 0in /  0.0mm
19:49 70.5 °F /  21.4 °C 59 °F /  15 °C 30in /  1015.3hPa Este 7.1mph /  11.4km/h 13.8mph /  22.2km/h 67% 0in /  0.0mm
19:54 70.3 °F /  21.3 °C 58.8 °F /  14.9 °C 30in /  1015.3hPa Este 6.2mph /  10km/h 14mph /  22.5km/h 67% 0in /  0.0mm
19:59 70.2 °F /  21.2 °C 58.8 °F /  14.9 °C 30in /  1015.3hPa ENE 6.2mph /  10km/h 12mph /  19.3km/h 67% 0in /  0.0mm
20:04 70.3 °F /  21.3 °C 58.8 °F /  14.9 °C 30in /  1015.5hPa Este 6.2mph /  10km/h 11.8mph /  19km/h 67% 0in /  0.0mm
20:09 70.2 °F /  21.2 °C 58.8 °F /  14.9 °C 30in /  1015.5hPa ESE 6.1mph /  9.8km/h 12.7mph /  20.4km/h 67% 0in /  0.0mm
20:14 70.2 °F /  21.2 °C 58.6 °F /  14.8 °C 30in /  1015.5hPa Este 5.9mph /  9.5km/h 13mph /  20.9km/h 67% 0in /  0.0mm
20:19 70 °F /  21.1 °C 58.8 °F /  14.9 °C 30in /  1015.5hPa NE 6mph /  9.7km/h 11.5mph /  18.5km/h 67.6% 0in /  0.0mm
20:24 69.6 °F /  20.9 °C 59 °F /  15 °C 30in /  1015.5hPa NE 6.2mph /  10km/h 13.5mph /  21.7km/h 69.1% 0in /  0.0mm
20:29 69.3 °F /  20.7 °C 59 °F /  15 °C 30in /  1015.5hPa NE 6.8mph /  10.9km/h 13.8mph /  22.2km/h 70% 0in /  0.0mm
20:34 68.7 °F /  20.4 °C 58.8 °F /  14.9 °C 30in /  1015.7hPa NE 7.6mph /  12.2km/h 14mph /  22.5km/h 70.8% 0in /  0.0mm
20:39 68.5 °F /  20.3 °C 59 °F /  15 °C 30in /  1015.7hPa NE 8mph /  12.8km/h 14mph /  22.5km/h 71.6% 0in /  0.0mm
20:44 68.4 °F /  20.2 °C 59 °F /  15 °C 30in /  1015.7hPa NE 8.5mph /  13.7km/h 15.9mph /  25.6km/h 72% 0in /  0.0mm
20:49 68 °F /  20 °C 59 °F /  15 °C 30in /  1015.8hPa NE 8.8mph /  14.1km/h 19.7mph /  31.7km/h 73.2% 0in /  0.0mm
20:54 67.5 °F /  19.7 °C 59 °F /  15 °C 30in /  1015.8hPa NE 9.2mph /  14.8km/h 20mph /  32.2km/h 74.4% 0in /  0.0mm
20:59 66.7 °F /  19.3 °C 58.8 °F /  14.9 °C 30in /  1015.8hPa NE 10.1mph /  16.3km/h 20mph /  32.2km/h 75.3% 0in /  0.0mm
21:04 66.6 °F /  19.2 °C 58.8 °F /  14.9 °C 30in /  1015.9hPa NE 11.2mph /  18km/h 17.3mph /  27.8km/h 76% 0in /  0.0mm
21:09 66.6 °F /  19.2 °C 58.6 °F /  14.8 °C 30in /  1015.9hPa NE 10.8mph /  17.4km/h 17mph /  27.4km/h 76% 0in /  0.0mm
21:14 66.2 °F /  19 °C 58.6 °F /  14.8 °C 30in /  1015.9hPa NE 10.2mph /  16.4km/h 18.1mph /  29.1km/h 76.8% 0in /  0.0mm
21:19 65.8 °F /  18.8 °C 58.6 °F /  14.8 °C 30in /  1016.0hPa NE 10.2mph /  16.4km/h 18mph /  29km/h 77.4% 0in /  0.0mm
21:24 65.8 °F /  18.8 °C 58.8 °F /  14.9 °C 30in /  1016.0hPa NE 10.2mph /  16.4km/h 16mph /  25.7km/h 78% 0in /  0.0mm
21:29 65.7 °F /  18.7 °C 58.6 °F /  14.8 °C 30in /  1016.0hPa NE 9.5mph /  15.3km/h 14mph /  22.5km/h 78% 0in /  0.0mm
21:34 65.5 °F /  18.6 °C 58.5 °F /  14.7 °C 30in /  1016.4hPa NE 8.5mph /  13.7km/h 16.3mph /  26.2km/h 78.6% 0in /  0.0mm
21:39 65.1 °F /  18.4 °C 58.5 °F /  14.7 °C 30in /  1016.4hPa NE 8.8mph /  14.1km/h 16mph /  25.7km/h 79% 0in /  0.0mm
21:44 65.1 °F /  18.4 °C 58.5 °F /  14.7 °C 30in /  1016.4hPa NE 9.2mph /  14.8km/h 13mph /  20.9km/h 79% 0in /  0.0mm
21:49 64.9 °F /  18.3 °C 58.3 °F /  14.6 °C 30in /  1016.5hPa NE 8.9mph /  14.4km/h 14mph /  22.5km/h 79% 0in /  0.0mm
21:54 64.9 °F /  18.3 °C 58.5 °F /  14.7 °C 30in /  1016.5hPa NE 8.5mph /  13.7km/h 14mph /  22.5km/h 79.8% 0in /  0.0mm
21:59 64.8 °F /  18.2 °C 58.5 °F /  14.7 °C 30in /  1016.5hPa NE 8.1mph /  13km/h 13mph /  20.9km/h 80% 0in /  0.0mm
22:04 64.8 °F /  18.2 °C 58.3 °F /  14.6 °C 30in /  1016.6hPa NE 7.6mph /  12.2km/h 13.8mph /  22.2km/h 80% 0in /  0.0mm
22:09 64.6 °F /  18.1 °C 58.3 °F /  14.6 °C 30in /  1016.6hPa NE 7.6mph /  12.2km/h 14mph /  22.5km/h 80% 0in /  0.0mm
22:14 64.6 °F /  18.1 °C 58.5 °F /  14.7 °C 30in /  1016.6hPa NE 7.6mph /  12.2km/h 15.2mph /  24.5km/h 80.6% 0in /  0.0mm
22:19 64.2 °F /  17.9 °C 58.3 °F /  14.6 °C 30in /  1016.8hPa NE 7.8mph /  12.5km/h 15mph /  24.1km/h 81% 0in /  0.0mm
22:24 64.2 °F /  17.9 °C 58.3 °F /  14.6 °C 30in /  1016.8hPa NE 8.1mph /  13km/h 15mph /  24.1km/h 81% 0in /  0.0mm
22:29 64.2 °F /  17.9 °C 58.3 °F /  14.6 °C 30in /  1016.8hPa NE 8.1mph /  13km/h 14mph /  22.5km/h 81% 0in /  0.0mm
22:34 64.2 °F /  17.9 °C 58.3 °F /  14.6 °C 30in /  1017.0hPa NE 8.1mph /  13km/h 12mph /  19.3km/h 81% 0in /  0.0mm
22:39 64 °F /  17.8 °C 58.3 °F /  14.6 °C 30in /  1017.0hPa NE 7.6mph /  12.3km/h 11.8mph /  19km/h 81.4% 0in /  0.0mm
22:44 64 °F /  17.8 °C 58.5 °F /  14.7 °C 30in /  1017.0hPa NE 6.9mph /  11.1km/h 12mph /  19.3km/h 82% 0in /  0.0mm
22:49 64 °F /  17.8 °C 58.5 °F /  14.7 °C 30in /  1017.2hPa NE 6.3mph /  10.2km/h 9mph /  14.5km/h 82% 0in /  0.0mm
22:54 63.9 °F /  17.7 °C 58.3 °F /  14.6 °C 30in /  1017.2hPa NE 5.4mph /  8.7km/h 8.7mph /  14km/h 82% 0in /  0.0mm
22:59 63.9 °F /  17.7 °C 58.3 °F /  14.6 °C 30in /  1017.2hPa NE 5.7mph /  9.1km/h 9.7mph /  15.6km/h 82% 0in /  0.0mm
23:04 63.9 °F /  17.7 °C 58.3 °F /  14.6 °C 30in /  1017.3hPa NE 5.9mph /  9.5km/h 10.4mph /  16.7km/h 82% 0in /  0.0mm
23:09 63.7 °F /  17.6 °C 58.1 °F /  14.5 °C 30in /  1017.3hPa NE 5.7mph /  9.2km/h 10mph /  16.1km/h 82.2% 0in /  0.0mm
23:14 63.7 °F /  17.6 °C 58.5 °F /  14.7 °C 30in /  1017.3hPa NE 5.4mph /  8.7km/h 8.5mph /  13.7km/h 83% 0in /  0.0mm
23:19 63.7 °F /  17.6 °C 58.5 °F /  14.7 °C 30in /  1017.4hPa NE 5.2mph /  8.3km/h 9mph /  14.5km/h 83% 0in /  0.0mm
23:24 63.7 °F /  17.6 °C 58.1 °F /  14.5 °C 30in /  1017.4hPa NE 4.7mph /  7.6km/h 8.1mph /  13km/h 82.4% 0in /  0.0mm
23:29 63.3 °F /  17.4 °C 58.1 °F /  14.5 °C 30in /  1017.4hPa NE 5.2mph /  8.3km/h 9.2mph /  14.8km/h 83% 0in /  0.0mm
23:34 63.1 °F /  17.3 °C 58.1 °F /  14.5 °C 30in /  1017.4hPa NE 5.9mph /  9.5km/h 9mph /  14.5km/h 83% 0in /  0.0mm
23:39 63.1 °F /  17.3 °C 58.1 °F /  14.5 °C 30in /  1017.2hPa NE 5.6mph /  9km/h 9mph /  14.5km/h 83.7% 0in /  0.0mm
23:44 63 °F /  17.2 °C 57.9 °F /  14.4 °C 30in /  1017.2hPa NNE 5.2mph /  8.4km/h 9mph /  14.5km/h 84% 0in /  0.0mm
23:49 62.8 °F /  17.1 °C 57.9 °F /  14.4 °C 30in /  1017.3hPa NNE 5mph /  8.1km/h 7mph /  11.3km/h 84% 0in /  0.0mm
23:54 62.8 °F /  17.1 °C 58.1 °F /  14.5 °C 30in /  1017.3hPa NE 4.7mph /  7.6km/h 7mph /  11.3km/h 84.4% 0in /  0.0mm
23:59 62.6 °F /  17 °C 58.1 °F /  14.5 °C 30in /  1017.3hPa NE 4.5mph /  7.3km/h 7mph /  11.3km/h 85% 0in /  0.0mm
Murcia-Puente Tocinos, España
Compliments of Weather Underground - 3 mb

La estación de MeteoMurcia.com, publica sus datos en los siguientes proyectos:

Weather Underground PWS IMURCIAP2 Meteoclimatic www.awekas.at

W3Counter
Web Analytics